createdAt,value
2023-02-18T14:56:15.766Z,29.70
2023-02-18T14:58:45.280Z,29.70
2023-02-18T15:01:14.628Z,29.70
2023-02-18T15:03:43.970Z,29.70
2023-02-18T15:06:13.447Z,29.90
2023-02-18T15:08:43.078Z,30.00
2023-02-18T15:11:16.165Z,30.20
2023-02-18T15:13:45.480Z,30.30
2023-02-18T15:16:14.805Z,30.40
2023-02-18T15:18:44.179Z,30.60
2023-02-18T15:21:13.173Z,30.60
2023-02-18T15:23:42.562Z,30.80
2023-02-18T15:26:12.080Z,30.90
2023-02-18T15:28:41.472Z,30.90
2023-02-18T15:31:12.652Z,31.00
2023-02-18T15:33:41.080Z,31.00
2023-02-18T15:36:10.301Z,31.10
2023-02-18T15:38:39.413Z,31.10
2023-02-18T15:41:08.986Z,31.10
2023-02-18T15:43:38.292Z,31.10
2023-02-18T15:46:07.602Z,31.20
2023-02-18T15:48:36.902Z,31.20
2023-02-18T15:51:16.223Z,31.20
2023-02-18T15:53:36.270Z,31.20
2023-02-18T15:56:05.689Z,31.20
2023-02-18T15:58:36.400Z,31.20
2023-02-18T16:01:05.407Z,31.20
2023-02-18T16:03:34.754Z,31.20
2023-02-18T16:06:04.053Z,31.20
2023-02-18T16:08:33.558Z,31.20
2023-02-18T16:11:05.928Z,31.10
2023-02-18T16:13:33.415Z,31.00
2023-02-18T16:16:02.659Z,30.80
2023-02-18T16:18:31.792Z,30.60
2023-02-18T16:21:01.216Z,30.40
2023-02-18T16:23:30.484Z,30.30
2023-02-18T16:25:59.680Z,30.30
2023-02-18T16:28:29.082Z,30.20
2023-02-18T16:30:58.605Z,30.30
2023-02-18T16:33:27.796Z,30.40
2023-02-18T16:35:57.395Z,30.50
2023-02-18T16:38:28.465Z,30.60
2023-02-18T16:40:57.327Z,30.80
2023-02-18T16:43:26.733Z,30.80
2023-02-18T16:45:56.014Z,30.90
2023-02-18T16:48:25.368Z,30.90
2023-02-18T16:50:54.758Z,30.60
2023-02-18T16:53:24.041Z,30.40
2023-02-18T16:55:55.007Z,30.20
2023-02-18T16:58:23.863Z,30.10
2023-02-18T17:00:53.227Z,30.10
2023-02-18T17:03:22.384Z,30.00
2023-02-18T17:05:51.894Z,29.90
